sensor_id;sensor_type;location;lat;lon;timestamp;temperature;humidity
30648;DHT22;17683;53.360;9.736;2023-09-30T00:00:44;13.20;99.90
30648;DHT22;17683;53.360;9.736;2023-09-30T00:03:10;13.20;99.90
30648;DHT22;17683;53.360;9.736;2023-09-30T00:05:37;13.10;99.90
30648;DHT22;17683;53.360;9.736;2023-09-30T00:08:03;13.10;99.90
30648;DHT22;17683;53.360;9.736;2023-09-30T00:10:29;13.20;99.90
30648;DHT22;17683;53.360;9.736;2023-09-30T00:12:58;13.10;99.90
30648;DHT22;17683;53.360;9.736;2023-09-30T00:15:24;13.10;99.90
30648;DHT22;17683;53.360;9.736;2023-09-30T00:17:50;13.10;99.90
30648;DHT22;17683;53.360;9.736;2023-09-30T00:20:16;13.10;99.90
30648;DHT22;17683;53.360;9.736;2023-09-30T00:22:42;13.10;99.90
30648;DHT22;17683;53.360;9.736;2023-09-30T00:25:08;13.10;99.90
30648;DHT22;17683;53.360;9.736;2023-09-30T00:27:35;13.10;99.90
30648;DHT22;17683;53.360;9.736;2023-09-30T00:30:02;13.10;99.90
30648;DHT22;17683;53.360;9.736;2023-09-30T00:32:29;13.10;99.90
30648;DHT22;17683;53.360;9.736;2023-09-30T00:34:55;13.30;99.90
30648;DHT22;17683;53.360;9.736;2023-09-30T00:37:20;13.30;99.90
30648;DHT22;17683;53.360;9.736;2023-09-30T00:39:46;13.30;99.90
30648;DHT22;17683;53.360;9.736;2023-09-30T00:42:12;13.30;99.90
30648;DHT22;17683;53.360;9.736;2023-09-30T00:44:38;13.30;99.90
30648;DHT22;17683;53.360;9.736;2023-09-30T00:47:04;13.30;99.90
30648;DHT22;17683;53.360;9.736;2023-09-30T00:49:31;13.30;99.90
30648;DHT22;17683;53.360;9.736;2023-09-30T00:51:58;13.30;99.90
30648;DHT22;17683;53.360;9.736;2023-09-30T00:54:25;13.30;99.90
30648;DHT22;17683;53.360;9.736;2023-09-30T00:56:54;13.20;99.90
30648;DHT22;17683;53.360;9.736;2023-09-30T00:59:25;13.30;99.90
30648;DHT22;17683;53.360;9.736;2023-09-30T01:01:54;13.20;99.90
30648;DHT22;17683;53.360;9.736;2023-09-30T01:04:23;13.20;99.90
30648;DHT22;17683;53.360;9.736;2023-09-30T01:06:49;13.20;99.90
30648;DHT22;17683;53.360;9.736;2023-09-30T01:09:15;13.10;99.90
30648;DHT22;17683;53.360;9.736;2023-09-30T01:11:40;13.00;99.90
30648;DHT22;17683;53.360;9.736;2023-09-30T01:16:55;13.00;99.90
30648;DHT22;17683;53.360;9.736;2023-09-30T01:19:21;13.00;99.90
30648;DHT22;17683;53.360;9.736;2023-09-30T01:21:54;12.90;99.90
30648;DHT22;17683;53.360;9.736;2023-09-30T01:24:25;12.90;99.90
30648;DHT22;17683;53.360;9.736;2023-09-30T01:26:51;12.90;99.90
30648;DHT22;17683;53.360;9.736;2023-09-30T01:29:17;12.80;99.90
30648;DHT22;17683;53.360;9.736;2023-09-30T01:31:43;12.80;99.90
30648;DHT22;17683;53.360;9.736;2023-09-30T01:34:08;12.70;99.90
30648;DHT22;17683;53.360;9.736;2023-09-30T01:36:36;12.80;99.90
30648;DHT22;17683;53.360;9.736;2023-09-30T01:39:02;12.70;99.90
30648;DHT22;17683;53.360;9.736;2023-09-30T01:41:28;12.80;99.90
30648;DHT22;17683;53.360;9.736;2023-09-30T01:43:54;12.70;99.90
30648;DHT22;17683;53.360;9.736;2023-09-30T01:46:19;12.70;99.90
30648;DHT22;17683;53.360;9.736;2023-09-30T01:48:45;12.70;99.90
30648;DHT22;17683;53.360;9.736;2023-09-30T01:51:11;12.60;99.90
30648;DHT22;17683;53.360;9.736;2023-09-30T01:53:36;12.70;99.90
30648;DHT22;17683;53.360;9.736;2023-09-30T01:56:02;12.70;99.90
30648;DHT22;17683;53.360;9.736;2023-09-30T01:58:28;12.60;99.90
30648;DHT22;17683;53.360;9.736;2023-09-30T02:00:54;12.70;99.90
30648;DHT22;17683;53.360;9.736;2023-09-30T02:03:19;12.70;99.90
30648;DHT22;17683;53.360;9.736;2023-09-30T02:05:45;12.60;99.90
30648;DHT22;17683;53.360;9.736;2023-09-30T02:08:11;12.70;99.90
30648;DHT22;17683;53.360;9.736;2023-09-30T02:10:39;12.70;99.90
30648;DHT22;17683;53.360;9.736;2023-09-30T02:13:04;12.70;99.90
30648;DHT22;17683;53.360;9.736;2023-09-30T02:15:32;12.70;99.90
30648;DHT22;17683;53.360;9.736;2023-09-30T02:17:57;12.70;99.90
30648;DHT22;17683;53.360;9.736;2023-09-30T02:20:23;12.70;99.90
30648;DHT22;17683;53.360;9.736;2023-09-30T02:22:52;12.60;99.90
30648;DHT22;17683;53.360;9.736;2023-09-30T02:25:18;12.70;99.90
30648;DHT22;17683;53.360;9.736;2023-09-30T02:27:44;12.60;99.90
30648;DHT22;17683;53.360;9.736;2023-09-30T02:30:11;12.70;99.90
30648;DHT22;17683;53.360;9.736;2023-09-30T02:32:42;12.70;99.90
30648;DHT22;17683;53.360;9.736;2023-09-30T02:35:08;12.70;99.90
30648;DHT22;17683;53.360;9.736;2023-09-30T02:37:37;12.60;99.90
30648;DHT22;17683;53.360;9.736;2023-09-30T02:40:04;12.60;99.90
30648;DHT22;17683;53.360;9.736;2023-09-30T02:42:34;12.50;99.90
30648;DHT22;17683;53.360;9.736;2023-09-30T02:45:00;12.60;99.90
30648;DHT22;17683;53.360;9.736;2023-09-30T02:47:29;12.60;99.90
30648;DHT22;17683;53.360;9.736;2023-09-30T02:49:58;12.60;99.90
30648;DHT22;17683;53.360;9.736;2023-09-30T02:52:24;12.60;99.90
30648;DHT22;17683;53.360;9.736;2023-09-30T02:54:50;12.60;99.90
30648;DHT22;17683;53.360;9.736;2023-09-30T02:57:15;12.50;99.90
30648;DHT22;17683;53.360;9.736;2023-09-30T02:59:41;12.50;99.90
30648;DHT22;17683;53.360;9.736;2023-09-30T03:02:07;12.50;99.90
30648;DHT22;17683;53.360;9.736;2023-09-30T03:04:33;12.50;99.90
30648;DHT22;17683;53.360;9.736;2023-09-30T03:06:59;12.50;99.90
30648;DHT22;17683;53.360;9.736;2023-09-30T03:09:25;12.50;99.90
30648;DHT22;17683;53.360;9.736;2023-09-30T03:11:51;12.40;99.90
30648;DHT22;17683;53.360;9.736;2023-09-30T03:14:17;12.40;99.90
30648;DHT22;17683;53.360;9.736;2023-09-30T03:16:43;12.40;99.90
30648;DHT22;17683;53.360;9.736;2023-09-30T03:19:10;12.30;99.90
30648;DHT22;17683;53.360;9.736;2023-09-30T03:21:37;12.40;99.90
30648;DHT22;17683;53.360;9.736;2023-09-30T03:24:04;12.40;99.90
30648;DHT22;17683;53.360;9.736;2023-09-30T03:26:30;12.40;99.90
30648;DHT22;17683;53.360;9.736;2023-09-30T03:28:56;12.40;99.90
30648;DHT22;17683;53.360;9.736;2023-09-30T03:31:23;12.40;99.90
30648;DHT22;17683;53.360;9.736;2023-09-30T03:33:50;12.30;99.90
30648;DHT22;17683;53.360;9.736;2023-09-30T03:36:16;12.30;99.90
30648;DHT22;17683;53.360;9.736;2023-09-30T03:38:44;12.30;99.90
30648;DHT22;17683;53.360;9.736;2023-09-30T03:41:10;12.20;99.90
30648;DHT22;17683;53.360;9.736;2023-09-30T03:43:38;12.30;99.90
30648;DHT22;17683;53.360;9.736;2023-09-30T03:46:07;12.30;99.90
30648;DHT22;17683;53.360;9.736;2023-09-30T03:48:32;12.30;99.90
30648;DHT22;17683;53.360;9.736;2023-09-30T03:51:14;12.20;99.90
30648;DHT22;17683;53.360;9.736;2023-09-30T03:53:46;12.20;99.90
30648;DHT22;17683;53.360;9.736;2023-09-30T03:56:12;12.20;99.90
30648;DHT22;17683;53.360;9.736;2023-09-30T03:58:42;12.20;99.90
30648;DHT22;17683;53.360;9.736;2023-09-30T04:01:11;12.20;99.90
30648;DHT22;17683;53.360;9.736;2023-09-30T04:03:38;12.20;99.90
30648;DHT22;17683;53.360;9.736;2023-09-30T04:06:08;12.20;99.90
30648;DHT22;17683;53.360;9.736;2023-09-30T04:08:35;12.10;99.90
30648;DHT22;17683;53.360;9.736;2023-09-30T04:11:01;12.20;99.90
30648;DHT22;17683;53.360;9.736;2023-09-30T04:13:28;12.20;99.90
30648;DHT22;17683;53.360;9.736;2023-09-30T04:15:55;12.10;99.90
30648;DHT22;17683;53.360;9.736;2023-09-30T04:18:23;12.10;99.90
30648;DHT22;17683;53.360;9.736;2023-09-30T04:20:52;12.10;99.90
30648;DHT22;17683;53.360;9.736;2023-09-30T04:23:18;12.10;99.90
30648;DHT22;17683;53.360;9.736;2023-09-30T04:25:46;12.10;99.90
30648;DHT22;17683;53.360;9.736;2023-09-30T04:28:12;12.10;99.90
30648;DHT22;17683;53.360;9.736;2023-09-30T04:30:39;12.10;99.90
30648;DHT22;17683;53.360;9.736;2023-09-30T04:33:05;12.10;99.90
30648;DHT22;17683;53.360;9.736;2023-09-30T04:35:31;12.10;99.90
30648;DHT22;17683;53.360;9.736;2023-09-30T04:37:57;12.10;99.90
30648;DHT22;17683;53.360;9.736;2023-09-30T04:40:31;12.10;99.90
30648;DHT22;17683;53.360;9.736;2023-09-30T04:42:59;12.10;99.90
30648;DHT22;17683;53.360;9.736;2023-09-30T04:45:25;12.10;99.90
30648;DHT22;17683;53.360;9.736;2023-09-30T04:47:55;12.10;99.90
30648;DHT22;17683;53.360;9.736;2023-09-30T04:50:23;12.10;99.90
30648;DHT22;17683;53.360;9.736;2023-09-30T04:52:50;12.10;99.90
30648;DHT22;17683;53.360;9.736;2023-09-30T04:55:17;12.10;99.90
30648;DHT22;17683;53.360;9.736;2023-09-30T04:57:44;12.10;99.90
30648;DHT22;17683;53.360;9.736;2023-09-30T05:00:14;12.10;99.90
30648;DHT22;17683;53.360;9.736;2023-09-30T05:02:40;12.10;99.90
30648;DHT22;17683;53.360;9.736;2023-09-30T05:05:06;12.10;99.90
30648;DHT22;17683;53.360;9.736;2023-09-30T05:07:33;12.20;99.90
30648;DHT22;17683;53.360;9.736;2023-09-30T05:09:58;12.20;99.90
30648;DHT22;17683;53.360;9.736;2023-09-30T05:12:25;12.20;99.90
30648;DHT22;17683;53.360;9.736;2023-09-30T05:14:51;12.20;99.90
30648;DHT22;17683;53.360;9.736;2023-09-30T05:17:17;12.20;99.90
30648;DHT22;17683;53.360;9.736;2023-09-30T05:19:43;12.20;99.90
30648;DHT22;17683;53.360;9.736;2023-09-30T05:22:09;12.30;99.90
30648;DHT22;17683;53.360;9.736;2023-09-30T05:24:35;12.20;99.90
30648;DHT22;17683;53.360;9.736;2023-09-30T05:27:01;12.20;99.90
30648;DHT22;17683;53.360;9.736;2023-09-30T05:29:28;12.20;99.90
30648;DHT22;17683;53.360;9.736;2023-09-30T05:31:54;12.20;99.90
30648;DHT22;17683;53.360;9.736;2023-09-30T05:34:19;12.20;99.90
30648;DHT22;17683;53.360;9.736;2023-09-30T05:36:45;12.20;99.90
30648;DHT22;17683;53.360;9.736;2023-09-30T05:39:11;12.30;99.90
30648;DHT22;17683;53.360;9.736;2023-09-30T05:41:38;12.30;99.90
30648;DHT22;17683;53.360;9.736;2023-09-30T05:44:04;12.30;99.90
30648;DHT22;17683;53.360;9.736;2023-09-30T05:46:30;12.30;99.90
30648;DHT22;17683;53.360;9.736;2023-09-30T05:48:56;12.30;99.90
30648;DHT22;17683;53.360;9.736;2023-09-30T05:51:22;12.30;99.90
30648;DHT22;17683;53.360;9.736;2023-09-30T05:53:48;12.30;99.90
30648;DHT22;17683;53.360;9.736;2023-09-30T05:56:14;12.30;99.90
30648;DHT22;17683;53.360;9.736;2023-09-30T05:58:41;12.30;99.90
30648;DHT22;17683;53.360;9.736;2023-09-30T06:01:08;12.40;99.90
30648;DHT22;17683;53.360;9.736;2023-09-30T06:03:36;12.40;99.90
30648;DHT22;17683;53.360;9.736;2023-09-30T06:06:14;12.40;99.90
30648;DHT22;17683;53.360;9.736;2023-09-30T06:08:42;12.40;99.90
30648;DHT22;17683;53.360;9.736;2023-09-30T06:11:18;12.50;99.90
30648;DHT22;17683;53.360;9.736;2023-09-30T06:13:45;12.40;99.90
30648;DHT22;17683;53.360;9.736;2023-09-30T06:16:12;12.50;99.90
30648;DHT22;17683;53.360;9.736;2023-09-30T06:18:38;12.40;99.90
30648;DHT22;17683;53.360;9.736;2023-09-30T06:21:04;12.50;99.90
30648;DHT22;17683;53.360;9.736;2023-09-30T06:23:30;12.50;99.90
30648;DHT22;17683;53.360;9.736;2023-09-30T06:25:57;12.40;99.90
30648;DHT22;17683;53.360;9.736;2023-09-30T06:28:23;12.40;99.90
30648;DHT22;17683;53.360;9.736;2023-09-30T06:30:54;12.50;99.90
30648;DHT22;17683;53.360;9.736;2023-09-30T06:33:20;12.50;99.90
30648;DHT22;17683;53.360;9.736;2023-09-30T06:35:46;12.50;99.90
30648;DHT22;17683;53.360;9.736;2023-09-30T06:38:21;12.50;99.90
30648;DHT22;17683;53.360;9.736;2023-09-30T06:40:47;12.50;99.90
30648;DHT22;17683;53.360;9.736;2023-09-30T06:43:16;12.50;99.90
30648;DHT22;17683;53.360;9.736;2023-09-30T06:45:45;12.50;99.90
30648;DHT22;17683;53.360;9.736;2023-09-30T06:48:12;12.60;99.90
30648;DHT22;17683;53.360;9.736;2023-09-30T06:50:49;12.60;99.90
30648;DHT22;17683;53.360;9.736;2023-09-30T06:53:18;12.70;99.90
30648;DHT22;17683;53.360;9.736;2023-09-30T06:55:44;12.80;99.90
30648;DHT22;17683;53.360;9.736;2023-09-30T06:58:14;12.80;99.90
30648;DHT22;17683;53.360;9.736;2023-09-30T07:00:44;12.90;99.90
30648;DHT22;17683;53.360;9.736;2023-09-30T07:03:10;13.00;99.90
30648;DHT22;17683;53.360;9.736;2023-09-30T07:05:39;13.00;99.90
30648;DHT22;17683;53.360;9.736;2023-09-30T07:08:05;13.10;99.90
30648;DHT22;17683;53.360;9.736;2023-09-30T07:10:31;13.20;99.90
30648;DHT22;17683;53.360;9.736;2023-09-30T07:12:57;13.30;99.90
30648;DHT22;17683;53.360;9.736;2023-09-30T07:15:23;13.30;99.90
30648;DHT22;17683;53.360;9.736;2023-09-30T07:17:48;13.40;99.90
30648;DHT22;17683;53.360;9.736;2023-09-30T07:20:14;13.40;99.90
30648;DHT22;17683;53.360;9.736;2023-09-30T07:22:40;13.50;99.90
30648;DHT22;17683;53.360;9.736;2023-09-30T07:25:07;13.60;99.90
30648;DHT22;17683;53.360;9.736;2023-09-30T07:27:33;13.60;99.90
30648;DHT22;17683;53.360;9.736;2023-09-30T07:29:59;13.60;99.90
30648;DHT22;17683;53.360;9.736;2023-09-30T07:32:25;13.70;99.90
30648;DHT22;17683;53.360;9.736;2023-09-30T07:34:51;13.70;99.90
30648;DHT22;17683;53.360;9.736;2023-09-30T07:37:18;13.80;99.90
30648;DHT22;17683;53.360;9.736;2023-09-30T07:39:44;13.80;99.90
30648;DHT22;17683;53.360;9.736;2023-09-30T07:42:10;13.90;99.90
30648;DHT22;17683;53.360;9.736;2023-09-30T07:44:36;14.00;99.90
30648;DHT22;17683;53.360;9.736;2023-09-30T07:47:03;14.00;99.90
30648;DHT22;17683;53.360;9.736;2023-09-30T07:49:29;14.10;99.90
30648;DHT22;17683;53.360;9.736;2023-09-30T07:51:55;14.10;99.90
30648;DHT22;17683;53.360;9.736;2023-09-30T07:54:21;14.20;99.90
30648;DHT22;17683;53.360;9.736;2023-09-30T07:56:47;14.20;99.90
30648;DHT22;17683;53.360;9.736;2023-09-30T07:59:12;14.30;99.90
30648;DHT22;17683;53.360;9.736;2023-09-30T08:01:39;14.40;99.90
30648;DHT22;17683;53.360;9.736;2023-09-30T08:04:06;14.50;99.90
30648;DHT22;17683;53.360;9.736;2023-09-30T08:06:32;14.60;99.90
30648;DHT22;17683;53.360;9.736;2023-09-30T08:08:58;14.60;99.90
30648;DHT22;17683;53.360;9.736;2023-09-30T08:11:24;14.70;99.90
30648;DHT22;17683;53.360;9.736;2023-09-30T08:13:56;14.70;99.90
30648;DHT22;17683;53.360;9.736;2023-09-30T08:16:22;14.80;99.90
30648;DHT22;17683;53.360;9.736;2023-09-30T08:18:47;14.90;99.90
30648;DHT22;17683;53.360;9.736;2023-09-30T08:21:14;14.90;99.90
30648;DHT22;17683;53.360;9.736;2023-09-30T08:23:39;15.00;99.90
30648;DHT22;17683;53.360;9.736;2023-09-30T08:26:05;15.00;99.90
30648;DHT22;17683;53.360;9.736;2023-09-30T08:28:32;15.10;99.90
30648;DHT22;17683;53.360;9.736;2023-09-30T08:31:04;15.10;99.90
30648;DHT22;17683;53.360;9.736;2023-09-30T08:33:31;15.20;99.90
30648;DHT22;17683;53.360;9.736;2023-09-30T08:36:02;15.30;99.90
30648;DHT22;17683;53.360;9.736;2023-09-30T08:38:33;15.40;99.90
30648;DHT22;17683;53.360;9.736;2023-09-30T08:40:59;15.40;99.90
30648;DHT22;17683;53.360;9.736;2023-09-30T08:43:26;15.50;99.90
30648;DHT22;17683;53.360;9.736;2023-09-30T08:45:56;15.60;99.90
30648;DHT22;17683;53.360;9.736;2023-09-30T08:48:23;15.60;99.90
30648;DHT22;17683;53.360;9.736;2023-09-30T08:50:51;15.70;99.90
30648;DHT22;17683;53.360;9.736;2023-09-30T08:53:19;15.70;99.90
30648;DHT22;17683;53.360;9.736;2023-09-30T08:55:46;15.80;99.90
30648;DHT22;17683;53.360;9.736;2023-09-30T08:58:13;15.80;99.90
30648;DHT22;17683;53.360;9.736;2023-09-30T09:00:39;15.90;99.90
30648;DHT22;17683;53.360;9.736;2023-09-30T09:03:08;15.90;99.90
30648;DHT22;17683;53.360;9.736;2023-09-30T09:05:34;16.00;99.90
30648;DHT22;17683;53.360;9.736;2023-09-30T09:08:00;16.00;99.90
30648;DHT22;17683;53.360;9.736;2023-09-30T09:10:26;16.00;99.90
30648;DHT22;17683;53.360;9.736;2023-09-30T09:12:57;16.10;99.90
30648;DHT22;17683;53.360;9.736;2023-09-30T09:15:25;16.20;99.90
30648;DHT22;17683;53.360;9.736;2023-09-30T09:17:51;16.30;99.90
30648;DHT22;17683;53.360;9.736;2023-09-30T09:20:20;16.30;99.90
30648;DHT22;17683;53.360;9.736;2023-09-30T09:22:48;16.30;99.90
30648;DHT22;17683;53.360;9.736;2023-09-30T09:25:16;16.40;99.90
30648;DHT22;17683;53.360;9.736;2023-09-30T09:27:42;16.40;99.90
30648;DHT22;17683;53.360;9.736;2023-09-30T09:30:19;16.50;99.90
30648;DHT22;17683;53.360;9.736;2023-09-30T09:33:05;16.60;99.90
30648;DHT22;17683;53.360;9.736;2023-09-30T09:35:33;16.70;99.90
30648;DHT22;17683;53.360;9.736;2023-09-30T09:38:04;16.80;99.90
30648;DHT22;17683;53.360;9.736;2023-09-30T09:40:35;16.70;99.90
30648;DHT22;17683;53.360;9.736;2023-09-30T09:43:02;16.80;99.90
30648;DHT22;17683;53.360;9.736;2023-09-30T09:45:36;16.80;99.90
30648;DHT22;17683;53.360;9.736;2023-09-30T09:48:04;16.90;99.90
30648;DHT22;17683;53.360;9.736;2023-09-30T09:50:30;17.00;99.90
30648;DHT22;17683;53.360;9.736;2023-09-30T09:52:59;17.10;99.90
30648;DHT22;17683;53.360;9.736;2023-09-30T09:55:26;17.10;99.90
30648;DHT22;17683;53.360;9.736;2023-09-30T09:57:53;17.20;99.90
30648;DHT22;17683;53.360;9.736;2023-09-30T10:00:22;17.30;99.90
30648;DHT22;17683;53.360;9.736;2023-09-30T10:02:49;17.40;99.90
30648;DHT22;17683;53.360;9.736;2023-09-30T10:05:16;17.40;99.90
30648;DHT22;17683;53.360;9.736;2023-09-30T10:07:54;17.50;99.90
30648;DHT22;17683;53.360;9.736;2023-09-30T10:10:22;17.50;99.90
30648;DHT22;17683;53.360;9.736;2023-09-30T10:12:48;17.60;99.90
30648;DHT22;17683;53.360;9.736;2023-09-30T10:18:05;17.80;99.90
30648;DHT22;17683;53.360;9.736;2023-09-30T10:20:36;17.90;99.90
30648;DHT22;17683;53.360;9.736;2023-09-30T10:25:48;18.10;99.90
30648;DHT22;17683;53.360;9.736;2023-09-30T10:31:14;18.10;99.90
30648;DHT22;17683;53.360;9.736;2023-09-30T10:36:40;18.30;99.90
30648;DHT22;17683;53.360;9.736;2023-09-30T10:39:11;18.30;99.90
30648;DHT22;17683;53.360;9.736;2023-09-30T10:46:56;18.40;99.90
30648;DHT22;17683;53.360;9.736;2023-09-30T10:51:50;18.50;99.90
30648;DHT22;17683;53.360;9.736;2023-09-30T10:54:22;18.50;99.90
30648;DHT22;17683;53.360;9.736;2023-09-30T10:56:51;18.50;99.90
30648;DHT22;17683;53.360;9.736;2023-09-30T10:59:19;18.50;99.90
30648;DHT22;17683;53.360;9.736;2023-09-30T11:01:45;18.50;99.90
30648;DHT22;17683;53.360;9.736;2023-09-30T11:04:11;18.50;99.90
30648;DHT22;17683;53.360;9.736;2023-09-30T11:06:40;18.50;99.90
30648;DHT22;17683;53.360;9.736;2023-09-30T11:09:06;18.60;99.90
30648;DHT22;17683;53.360;9.736;2023-09-30T11:11:48;18.60;99.90
30648;DHT22;17683;53.360;9.736;2023-09-30T11:16:54;18.70;99.90
30648;DHT22;17683;53.360;9.736;2023-09-30T11:19:21;18.70;99.90
30648;DHT22;17683;53.360;9.736;2023-09-30T11:21:52;18.70;99.90
30648;DHT22;17683;53.360;9.736;2023-09-30T11:24:18;18.80;99.90
30648;DHT22;17683;53.360;9.736;2023-09-30T11:26:45;18.90;99.90
30648;DHT22;17683;53.360;9.736;2023-09-30T11:29:14;18.90;99.90
30648;DHT22;17683;53.360;9.736;2023-09-30T11:31:45;19.00;99.90
30648;DHT22;17683;53.360;9.736;2023-09-30T11:34:12;18.90;99.90
30648;DHT22;17683;53.360;9.736;2023-09-30T11:36:50;18.90;99.90
30648;DHT22;17683;53.360;9.736;2023-09-30T11:39:23;18.90;99.90
30648;DHT22;17683;53.360;9.736;2023-09-30T11:41:52;19.00;99.90
30648;DHT22;17683;53.360;9.736;2023-09-30T11:44:18;19.10;99.90
30648;DHT22;17683;53.360;9.736;2023-09-30T11:46:57;19.10;99.90
30648;DHT22;17683;53.360;9.736;2023-09-30T11:49:33;19.20;99.90
30648;DHT22;17683;53.360;9.736;2023-09-30T11:52:06;19.30;99.90
30648;DHT22;17683;53.360;9.736;2023-09-30T11:54:35;19.30;99.90
30648;DHT22;17683;53.360;9.736;2023-09-30T11:57:06;19.40;99.90
30648;DHT22;17683;53.360;9.736;2023-09-30T11:59:35;19.50;99.90
30648;DHT22;17683;53.360;9.736;2023-09-30T12:02:04;19.40;99.90
30648;DHT22;17683;53.360;9.736;2023-09-30T12:04:34;19.40;99.90
30648;DHT22;17683;53.360;9.736;2023-09-30T12:07:00;19.40;99.90
30648;DHT22;17683;53.360;9.736;2023-09-30T12:09:26;19.40;99.90
30648;DHT22;17683;53.360;9.736;2023-09-30T12:11:53;19.20;99.90
30648;DHT22;17683;53.360;9.736;2023-09-30T12:14:20;19.20;99.90
30648;DHT22;17683;53.360;9.736;2023-09-30T12:16:46;19.10;99.90
30648;DHT22;17683;53.360;9.736;2023-09-30T12:19:17;19.10;99.90
30648;DHT22;17683;53.360;9.736;2023-09-30T12:21:44;19.10;99.90
30648;DHT22;17683;53.360;9.736;2023-09-30T12:24:13;19.10;99.90
30648;DHT22;17683;53.360;9.736;2023-09-30T12:26:46;19.20;99.90
30648;DHT22;17683;53.360;9.736;2023-09-30T12:29:19;19.30;99.90
30648;DHT22;17683;53.360;9.736;2023-09-30T12:31:45;19.30;99.90
30648;DHT22;17683;53.360;9.736;2023-09-30T12:34:12;19.40;99.90
30648;DHT22;17683;53.360;9.736;2023-09-30T12:36:38;19.40;99.90
30648;DHT22;17683;53.360;9.736;2023-09-30T12:39:04;19.40;99.90
30648;DHT22;17683;53.360;9.736;2023-09-30T12:41:37;19.40;99.90
30648;DHT22;17683;53.360;9.736;2023-09-30T12:44:03;19.40;99.90
30648;DHT22;17683;53.360;9.736;2023-09-30T12:46:29;19.40;99.90
30648;DHT22;17683;53.360;9.736;2023-09-30T12:48:54;19.40;99.90
30648;DHT22;17683;53.360;9.736;2023-09-30T12:51:20;19.40;99.90
30648;DHT22;17683;53.360;9.736;2023-09-30T12:53:46;19.40;99.90
30648;DHT22;17683;53.360;9.736;2023-09-30T12:56:12;19.40;99.90
30648;DHT22;17683;53.360;9.736;2023-09-30T12:58:39;19.30;99.90
30648;DHT22;17683;53.360;9.736;2023-09-30T13:01:05;19.30;99.90
30648;DHT22;17683;53.360;9.736;2023-09-30T13:03:32;19.30;99.90
30648;DHT22;17683;53.360;9.736;2023-09-30T13:05:57;19.20;99.90
30648;DHT22;17683;53.360;9.736;2023-09-30T13:08:23;19.20;99.90
30648;DHT22;17683;53.360;9.736;2023-09-30T13:10:49;19.20;99.90
30648;DHT22;17683;53.360;9.736;2023-09-30T13:13:16;19.20;99.90
30648;DHT22;17683;53.360;9.736;2023-09-30T13:15:42;19.20;99.90
30648;DHT22;17683;53.360;9.736;2023-09-30T13:18:08;19.20;99.90
30648;DHT22;17683;53.360;9.736;2023-09-30T13:20:33;19.20;99.90
30648;DHT22;17683;53.360;9.736;2023-09-30T13:22:59;19.20;99.90
30648;DHT22;17683;53.360;9.736;2023-09-30T13:25:25;19.20;99.90
30648;DHT22;17683;53.360;9.736;2023-09-30T13:27:52;19.20;99.90
30648;DHT22;17683;53.360;9.736;2023-09-30T13:30:17;19.10;99.90
30648;DHT22;17683;53.360;9.736;2023-09-30T13:32:43;19.00;99.90
30648;DHT22;17683;53.360;9.736;2023-09-30T13:35:09;19.00;99.90
30648;DHT22;17683;53.360;9.736;2023-09-30T13:37:35;19.00;99.90
30648;DHT22;17683;53.360;9.736;2023-09-30T13:40:03;18.90;99.90
30648;DHT22;17683;53.360;9.736;2023-09-30T13:42:37;18.80;99.90
30648;DHT22;17683;53.360;9.736;2023-09-30T13:45:03;18.70;99.90
30648;DHT22;17683;53.360;9.736;2023-09-30T13:47:29;18.70;99.90
30648;DHT22;17683;53.360;9.736;2023-09-30T13:49:54;18.70;99.90
30648;DHT22;17683;53.360;9.736;2023-09-30T13:52:20;18.70;99.90
30648;DHT22;17683;53.360;9.736;2023-09-30T13:54:46;18.60;99.90
30648;DHT22;17683;53.360;9.736;2023-09-30T13:57:12;18.60;99.90
30648;DHT22;17683;53.360;9.736;2023-09-30T13:59:39;18.60;99.90
30648;DHT22;17683;53.360;9.736;2023-09-30T14:02:05;18.60;99.90
30648;DHT22;17683;53.360;9.736;2023-09-30T14:04:31;18.50;99.90
30648;DHT22;17683;53.360;9.736;2023-09-30T14:06:58;18.60;99.90
30648;DHT22;17683;53.360;9.736;2023-09-30T14:09:28;18.60;99.90
30648;DHT22;17683;53.360;9.736;2023-09-30T14:11:53;18.50;99.90
30648;DHT22;17683;53.360;9.736;2023-09-30T14:14:19;18.50;99.90
30648;DHT22;17683;53.360;9.736;2023-09-30T14:16:45;18.50;99.90
30648;DHT22;17683;53.360;9.736;2023-09-30T14:19:10;18.50;99.90
30648;DHT22;17683;53.360;9.736;2023-09-30T14:21:39;18.60;99.90
30648;DHT22;17683;53.360;9.736;2023-09-30T14:24:05;18.60;99.90
30648;DHT22;17683;53.360;9.736;2023-09-30T14:26:32;18.60;99.90
30648;DHT22;17683;53.360;9.736;2023-09-30T14:28:57;18.60;99.90
30648;DHT22;17683;53.360;9.736;2023-09-30T14:31:23;18.60;99.90
30648;DHT22;17683;53.360;9.736;2023-09-30T14:33:49;18.60;99.90
30648;DHT22;17683;53.360;9.736;2023-09-30T14:36:16;18.60;99.90
30648;DHT22;17683;53.360;9.736;2023-09-30T14:38:43;18.50;99.90
30648;DHT22;17683;53.360;9.736;2023-09-30T14:41:10;18.50;99.90
30648;DHT22;17683;53.360;9.736;2023-09-30T14:43:38;18.40;99.90
30648;DHT22;17683;53.360;9.736;2023-09-30T14:46:04;18.40;99.90
30648;DHT22;17683;53.360;9.736;2023-09-30T14:48:30;18.30;99.90
30648;DHT22;17683;53.360;9.736;2023-09-30T14:50:56;18.30;99.90
30648;DHT22;17683;53.360;9.736;2023-09-30T14:53:22;18.30;99.90
30648;DHT22;17683;53.360;9.736;2023-09-30T14:55:48;18.30;99.90
30648;DHT22;17683;53.360;9.736;2023-09-30T14:58:14;18.20;99.90
30648;DHT22;17683;53.360;9.736;2023-09-30T15:00:40;18.20;99.90
30648;DHT22;17683;53.360;9.736;2023-09-30T15:03:05;18.20;99.90
30648;DHT22;17683;53.360;9.736;2023-09-30T15:05:34;18.10;99.90
30648;DHT22;17683;53.360;9.736;2023-09-30T15:08:01;18.10;99.90
30648;DHT22;17683;53.360;9.736;2023-09-30T15:10:29;18.10;99.90
30648;DHT22;17683;53.360;9.736;2023-09-30T15:12:55;18.00;99.90
30648;DHT22;17683;53.360;9.736;2023-09-30T15:15:23;17.90;99.90
30648;DHT22;17683;53.360;9.736;2023-09-30T15:17:48;18.00;99.90
30648;DHT22;17683;53.360;9.736;2023-09-30T15:20:14;18.00;99.90
30648;DHT22;17683;53.360;9.736;2023-09-30T15:22:40;18.00;99.90
30648;DHT22;17683;53.360;9.736;2023-09-30T15:25:06;17.90;99.90
30648;DHT22;17683;53.360;9.736;2023-09-30T15:27:32;17.90;99.90
30648;DHT22;17683;53.360;9.736;2023-09-30T15:30:01;17.80;99.90
30648;DHT22;17683;53.360;9.736;2023-09-30T15:32:27;17.70;99.90
30648;DHT22;17683;53.360;9.736;2023-09-30T15:34:53;17.70;99.90
30648;DHT22;17683;53.360;9.736;2023-09-30T15:37:18;17.60;99.90
30648;DHT22;17683;53.360;9.736;2023-09-30T15:39:44;17.50;99.90
30648;DHT22;17683;53.360;9.736;2023-09-30T15:42:12;17.40;99.90
30648;DHT22;17683;53.360;9.736;2023-09-30T15:44:38;17.30;99.90
30648;DHT22;17683;53.360;9.736;2023-09-30T15:47:08;17.30;99.90
30648;DHT22;17683;53.360;9.736;2023-09-30T15:49:35;17.20;99.90
30648;DHT22;17683;53.360;9.736;2023-09-30T15:52:01;17.20;99.90
30648;DHT22;17683;53.360;9.736;2023-09-30T15:54:27;17.20;99.90